createdAt,value
2019-04-01T00:00:42.985Z,77.89
2019-04-01T00:01:28.808Z,77.82
2019-04-01T00:02:07.123Z,78.18
2019-04-01T00:02:43.552Z,78.18
2019-04-01T00:03:21.644Z,78.07
2019-04-01T00:03:57.569Z,78.00
2019-04-01T00:04:33.837Z,77.77
2019-04-01T00:05:14.657Z,77.63
2019-04-01T00:05:51.264Z,77.63
2019-04-01T00:06:27.243Z,77.60
2019-04-01T00:07:03.845Z,76.86
2019-04-01T00:07:40.392Z,76.86
2019-04-01T00:08:17.095Z,78.09
2019-04-01T00:08:53.693Z,78.09
2019-04-01T00:09:30.629Z,77.58
2019-04-01T00:10:06.772Z,77.56
2019-04-01T00:10:45.756Z,77.68
2019-04-01T00:11:22.515Z,77.68
2019-04-01T00:11:59.804Z,77.39
2019-04-01T00:12:35.883Z,77.39
2019-04-01T00:13:12.390Z,77.28
2019-04-01T00:13:49.142Z,78.03
2019-04-01T00:14:26.389Z,78.03
2019-04-01T00:15:04.501Z,77.35
2019-04-01T00:15:41.059Z,77.35
2019-04-01T00:16:23.311Z,77.10
2019-04-01T00:17:00.109Z,77.10
2019-04-01T00:17:36.663Z,77.56
2019-04-01T00:18:13.170Z,77.72
2019-04-01T00:19:02.907Z,77.47
2019-04-01T00:19:36.218Z,77.47
2019-04-01T00:20:13.365Z,77.27
2019-04-01T00:20:50.130Z,77.17
2019-04-01T00:21:26.870Z,77.17
2019-04-01T00:22:03.615Z,76.84
2019-04-01T00:22:41.575Z,76.81
2019-04-01T00:23:18.656Z,76.81
2019-04-01T00:23:54.803Z,77.05
2019-04-01T00:24:32.300Z,77.07
2019-04-01T00:25:11.773Z,77.06
2019-04-01T00:25:48.401Z,77.04
2019-04-01T00:26:26.694Z,77.03
2019-04-01T00:27:03.367Z,77.03
2019-04-01T00:27:40.234Z,76.93
2019-04-01T00:28:16.310Z,76.93
2019-04-01T00:28:53.022Z,77.00
2019-04-01T00:29:29.197Z,76.48
2019-04-01T00:30:05.256Z,76.48
2019-04-01T00:30:42.582Z,76.64
2019-04-01T00:31:18.616Z,76.64
2019-04-01T00:31:55.094Z,76.88
2019-04-01T00:32:32.135Z,77.01
2019-04-01T00:33:09.000Z,77.01
2019-04-01T00:33:45.493Z,76.65
2019-04-01T00:34:24.195Z,76.33
2019-04-01T00:35:00.917Z,76.33
2019-04-01T00:35:36.944Z,76.82
2019-04-01T00:36:13.743Z,77.26
2019-04-01T00:36:51.344Z,77.18
2019-04-01T00:37:47.213Z,77.33
2019-04-01T00:38:23.202Z,77.33
2019-04-01T00:38:59.279Z,76.85
2019-04-01T00:39:36.874Z,76.84
2019-04-01T00:40:13.487Z,76.55
2019-04-01T00:40:50.368Z,76.55
2019-04-01T00:41:26.393Z,76.92
2019-04-01T00:42:21.446Z,76.96
2019-04-01T00:43:19.635Z,77.26
2019-04-01T00:43:57.978Z,77.26
2019-04-01T00:44:34.575Z,76.81
2019-04-01T00:45:13.842Z,76.96
2019-04-01T00:45:50.993Z,76.96
2019-04-01T00:46:27.061Z,76.96
2019-04-01T00:47:03.334Z,76.96
2019-04-01T00:47:39.843Z,76.74
2019-04-01T00:48:17.330Z,76.74
2019-04-01T00:48:53.980Z,76.62
2019-04-01T00:49:30.728Z,76.45
2019-04-01T00:50:07.473Z,76.46
2019-04-01T00:50:44.081Z,76.44
2019-04-01T00:51:20.415Z,75.67
2019-04-01T00:51:56.715Z,76.42
2019-04-01T00:52:33.289Z,76.42
2019-04-01T00:53:09.188Z,75.88
2019-04-01T00:53:46.415Z,75.76
2019-04-01T00:54:22.491Z,75.56
2019-04-01T00:54:58.580Z,75.56
2019-04-01T00:55:35.908Z,75.03
2019-04-01T00:56:14.175Z,74.99
2019-04-01T00:56:50.938Z,74.15
2019-04-01T00:57:27.283Z,74.15
2019-04-01T00:58:04.095Z,74.06
2019-04-01T00:58:42.126Z,74.06
2019-04-01T00:59:18.366Z,74.66
2019-04-01T00:59:55.087Z,74.88
2019-04-01T01:00:32.736Z,74.88
2019-04-01T01:01:09.955Z,74.33
2019-04-01T01:01:47.317Z,74.57
2019-04-01T01:02:25.359Z,74.49
2019-04-01T01:03:02.157Z,74.21
2019-04-01T01:03:38.077Z,73.83
2019-04-01T01:04:14.578Z,73.83
2019-04-01T01:04:50.599Z,73.86
2019-04-01T01:05:29.379Z,74.31
2019-04-01T01:06:10.040Z,74.31
2019-04-01T01:06:46.709Z,73.62
2019-04-01T01:07:23.069Z,73.50
2019-04-01T01:07:59.375Z,73.42
2019-04-01T01:08:37.624Z,73.34
2019-04-01T01:09:14.368Z,72.93
2019-04-01T01:09:51.916Z,72.93
2019-04-01T01:10:27.997Z,72.24
2019-04-01T01:11:04.245Z,72.96
2019-04-01T01:11:41.123Z,72.96
2019-04-01T01:12:17.959Z,72.27
2019-04-01T01:12:56.009Z,72.27
2019-04-01T01:13:32.719Z,72.59
2019-04-01T01:14:09.124Z,72.55
2019-04-01T01:14:46.953Z,72.38
2019-04-01T01:15:25.191Z,72.38
2019-04-01T01:16:01.135Z,71.33
2019-04-01T01:16:37.778Z,71.33
2019-04-01T01:17:14.058Z,71.87
2019-04-01T01:17:51.463Z,72.48
2019-04-01T01:18:27.965Z,72.48
2019-04-01T01:19:04.350Z,71.82
2019-04-01T01:19:40.889Z,71.78
2019-04-01T01:20:17.258Z,71.63
2019-04-01T01:20:53.782Z,71.58
2019-04-01T01:21:29.841Z,71.56
2019-04-01T01:22:09.732Z,71.64
2019-04-01T01:22:47.813Z,71.74
2019-04-01T01:23:26.743Z,72.50
2019-04-01T01:24:03.344Z,72.50
2019-04-01T01:24:39.707Z,72.07
2019-04-01T01:25:16.447Z,72.12
2019-04-01T01:25:52.817Z,72.12
2019-04-01T01:26:31.550Z,72.00
2019-04-01T01:27:09.617Z,71.90
2019-04-01T01:27:46.668Z,71.81
2019-04-01T01:28:23.253Z,71.75
2019-04-01T01:29:02.585Z,71.60
2019-04-01T01:29:40.048Z,71.60
2019-04-01T01:30:16.284Z,71.52
2019-04-01T01:30:52.222Z,71.46
2019-04-01T01:31:29.880Z,71.46
2019-04-01T01:32:07.462Z,71.28
2019-04-01T01:32:52.625Z,71.08
2019-04-01T01:33:29.761Z,71.08
2019-04-01T01:34:06.737Z,71.73
2019-04-01T01:35:09.202Z,71.20
2019-04-01T01:35:48.610Z,71.15
2019-04-01T01:36:24.734Z,71.20
2019-04-01T01:37:03.673Z,70.93
2019-04-01T01:37:40.637Z,71.46
2019-04-01T01:38:17.794Z,71.46
2019-04-01T01:39:06.815Z,70.87
2019-04-01T01:39:47.957Z,71.03
2019-04-01T01:40:24.198Z,70.66
2019-04-01T01:41:01.303Z,70.61
2019-04-01T01:41:41.277Z,70.54
2019-04-01T01:42:18.199Z,70.49
2019-04-01T01:42:54.324Z,70.32
2019-04-01T01:43:30.718Z,70.29
2019-04-01T01:44:11.050Z,70.27
2019-04-01T01:44:50.525Z,70.30
2019-04-01T01:45:27.434Z,70.35
2019-04-01T01:46:04.247Z,70.36
2019-04-01T01:46:59.272Z,70.27
2019-04-01T01:47:37.514Z,70.27
2019-04-01T01:48:13.896Z,69.82
2019-04-01T01:49:00.988Z,69.82
2019-04-01T01:49:42.757Z,69.97
2019-04-01T01:50:19.285Z,69.69
2019-04-01T01:50:56.447Z,69.83
2019-04-01T01:51:38.400Z,69.83
2019-04-01T01:52:16.421Z,69.37
2019-04-01T01:52:54.111Z,69.48
2019-04-01T01:53:30.641Z,69.32
2019-04-01T01:54:09.738Z,69.27
2019-04-01T01:54:51.150Z,69.00
2019-04-01T01:55:30.349Z,69.01
2019-04-01T01:56:08.385Z,69.19
2019-04-01T01:56:44.800Z,69.17
2019-04-01T01:57:23.371Z,69.07
2019-04-01T01:58:02.217Z,69.04
2019-04-01T01:58:38.963Z,69.07
2019-04-01T01:59:36.485Z,69.00
2019-04-01T02:00:16.372Z,68.93
2019-04-01T02:00:54.194Z,68.87
2019-04-01T02:01:30.484Z,68.94
2019-04-01T02:02:08.021Z,69.00
2019-04-01T02:02:44.866Z,69.04
2019-04-01T02:03:22.289Z,69.05
2019-04-01T02:04:01.071Z,69.06
2019-04-01T02:04:38.940Z,69.09
2019-04-01T02:05:16.397Z,68.83
2019-04-01T02:06:05.495Z,68.83
2019-04-01T02:06:41.652Z,68.69
2019-04-01T02:07:18.442Z,68.69
2019-04-01T02:07:55.570Z,68.50
2019-04-01T02:08:47.284Z,68.50
2019-04-01T02:09:24.836Z,67.96
2019-04-01T02:10:01.207Z,67.96
2019-04-01T02:10:39.757Z,68.46
2019-04-01T02:11:33.803Z,68.37
2019-04-01T02:12:12.018Z,68.16
2019-04-01T02:12:48.131Z,67.95
2019-04-01T02:13:28.449Z,67.95
2019-04-01T02:14:06.072Z,67.84
2019-04-01T02:14:55.068Z,67.81
2019-04-01T02:15:35.193Z,67.77
2019-04-01T02:16:17.542Z,67.67
2019-04-01T02:16:53.649Z,67.47
2019-04-01T02:17:30.333Z,67.23
2019-04-01T02:18:17.659Z,67.25
2019-04-01T02:20:16.842Z,66.90
2019-04-01T02:20:54.738Z,66.85
2019-04-01T02:21:34.396Z,66.80
2019-04-01T02:22:17.996Z,66.79
2019-04-01T02:22:54.269Z,66.77
2019-04-01T02:23:33.824Z,66.62
2019-04-01T02:24:12.319Z,66.58
2019-04-01T02:24:49.084Z,66.34
2019-04-01T02:25:28.681Z,66.38
2019-04-01T02:26:14.021Z,66.24
2019-04-01T02:26:50.425Z,66.10
2019-04-01T02:27:27.791Z,65.99
2019-04-01T02:28:04.121Z,65.75
2019-04-01T02:28:43.585Z,65.59
2019-04-01T02:29:21.264Z,65.35
2019-04-01T02:29:57.987Z,64.88
2019-04-01T02:30:36.615Z,64.54
2019-04-01T02:31:13.742Z,64.42
2019-04-01T02:31:49.652Z,64.27
2019-04-01T02:32:25.536Z,64.38
2019-04-01T02:33:02.127Z,64.68
2019-04-01T02:33:38.624Z,64.92
2019-04-01T02:34:14.683Z,64.79
2019-04-01T02:34:51.032Z,64.48
2019-04-01T02:35:27.515Z,64.23
2019-04-01T02:36:03.726Z,64.19
2019-04-01T02:36:40.451Z,64.11
2019-04-01T02:37:17.776Z,63.96
2019-04-01T02:37:54.131Z,64.05
2019-04-01T02:38:30.167Z,64.06
2019-04-01T02:39:09.707Z,64.04
2019-04-01T02:39:45.812Z,63.71
2019-04-01T02:40:23.242Z,63.61
2019-04-01T02:40:59.259Z,63.54
2019-04-01T02:41:35.862Z,63.53
2019-04-01T02:42:12.473Z,63.35
2019-04-01T02:42:53.976Z,63.26
2019-04-01T02:43:33.736Z,63.19
2019-04-01T02:44:10.460Z,63.11
2019-04-01T02:44:46.415Z,63.05
2019-04-01T02:45:23.619Z,63.07
2019-04-01T02:46:01.457Z,63.33
2019-04-01T02:46:37.458Z,63.13
2019-04-01T02:47:17.489Z,63.00
2019-04-01T02:47:54.237Z,62.81
2019-04-01T02:48:30.744Z,62.60
2019-04-01T02:49:06.747Z,62.63
2019-04-01T02:49:43.227Z,62.78
2019-04-01T02:50:19.387Z,62.62
2019-04-01T02:50:55.437Z,62.39
2019-04-01T02:51:31.575Z,62.18
2019-04-01T02:52:07.551Z,61.96
2019-04-01T02:52:51.825Z,61.86
2019-04-01T02:53:27.862Z,61.76
2019-04-01T02:54:04.881Z,61.58
2019-04-01T02:54:41.509Z,61.40
2019-04-01T02:55:17.474Z,61.36
2019-04-01T02:55:54.146Z,61.38
2019-04-01T02:56:34.209Z,61.34
2019-04-01T02:57:11.903Z,61.41
2019-04-01T02:57:48.736Z,61.55
2019-04-01T02:58:25.273Z,61.68
2019-04-01T02:59:01.798Z,61.83
2019-04-01T02:59:38.205Z,62.10
2019-04-01T03:00:14.987Z,62.30
2019-04-01T03:00:51.653Z,62.26
2019-04-01T03:01:27.723Z,62.23
2019-04-01T03:02:04.442Z,62.26
2019-04-01T03:02:41.243Z,62.42
2019-04-01T03:03:18.029Z,62.54
2019-04-01T03:03:55.922Z,62.74
2019-04-01T03:04:39.548Z,62.78
2019-04-01T03:05:16.201Z,62.99
2019-04-01T03:05:52.945Z,63.17
2019-04-01T03:06:29.015Z,63.27
2019-04-01T03:07:05.157Z,63.41
2019-04-01T03:07:42.758Z,63.52
2019-04-01T03:08:27.983Z,63.56
2019-04-01T03:09:07.714Z,63.79
2019-04-01T03:09:54.199Z,63.79
2019-04-01T03:10:35.744Z,63.80
2019-04-01T03:11:12.584Z,63.94
2019-04-01T03:11:48.534Z,64.21
2019-04-01T03:12:25.206Z,64.30
2019-04-01T03:13:01.966Z,64.36
2019-04-01T03:13:39.125Z,64.43
2019-04-01T03:14:16.887Z,64.33
2019-04-01T03:14:59.988Z,64.34
2019-04-01T03:15:36.631Z,64.39
2019-04-01T03:16:13.279Z,64.24
2019-04-01T03:16:49.579Z,64.30
2019-04-01T03:17:25.981Z,64.21
2019-04-01T03:18:03.365Z,64.18
2019-04-01T03:18:42.734Z,64.18
2019-04-01T03:19:29.050Z,64.21
2019-04-01T03:20:05.081Z,64.19
2019-04-01T03:20:41.219Z,64.25
2019-04-01T03:21:17.321Z,64.27
2019-04-01T03:21:54.155Z,64.14
2019-04-01T03:22:30.298Z,64.16
2019-04-01T03:23:06.976Z,64.25
2019-04-01T03:23:44.672Z,64.20
2019-04-01T03:24:21.065Z,64.21
2019-04-01T03:24:57.916Z,64.20
2019-04-01T03:25:34.178Z,64.21
2019-04-01T03:26:10.125Z,64.22
2019-04-01T03:26:46.958Z,64.18
2019-04-01T03:27:23.756Z,64.15
2019-04-01T03:28:03.024Z,64.08
2019-04-01T03:28:39.232Z,64.08
2019-04-01T03:29:15.861Z,64.05
2019-04-01T03:29:53.870Z,63.95
2019-04-01T03:30:31.184Z,64.00
2019-04-01T03:31:08.771Z,64.08
2019-04-01T03:31:46.516Z,64.35
2019-04-01T03:32:25.443Z,64.69
2019-04-01T03:33:06.207Z,64.95
2019-04-01T03:33:44.981Z,65.20
2019-04-01T03:34:24.190Z,65.32
2019-04-01T03:35:01.725Z,65.44
2019-04-01T03:35:39.169Z,65.77
2019-04-01T03:36:18.830Z,65.97
2019-04-01T03:36:55.797Z,66.12
2019-04-01T03:37:32.873Z,66.30
2019-04-01T03:38:10.141Z,66.85
2019-04-01T03:38:46.977Z,66.96
2019-04-01T03:39:25.679Z,67.73
2019-04-01T03:40:02.240Z,68.81
2019-04-01T03:40:38.207Z,69.13
2019-04-01T03:41:15.082Z,69.58
2019-04-01T03:41:51.025Z,69.98
2019-04-01T03:42:27.331Z,70.61
2019-04-01T03:43:03.487Z,71.18
2019-04-01T03:43:39.661Z,71.53
2019-04-01T03:44:17.364Z,71.91
2019-04-01T03:44:55.347Z,72.38
2019-04-01T03:45:31.859Z,73.10
2019-04-01T03:46:08.552Z,73.60
2019-04-01T03:46:44.509Z,74.24
2019-04-01T03:47:20.757Z,74.47
2019-04-01T03:47:59.977Z,74.90
2019-04-01T03:48:37.228Z,75.08
2019-04-01T03:49:13.208Z,75.94
2019-04-01T03:49:50.025Z,76.07
2019-04-01T03:50:26.561Z,76.46
2019-04-01T03:51:02.624Z,76.84
2019-04-01T03:51:38.898Z,77.17
2019-04-01T03:52:17.077Z,77.35
2019-04-01T03:52:54.426Z,77.39
2019-04-01T03:53:30.690Z,77.22
2019-04-01T03:54:07.784Z,77.56
2019-04-01T03:54:45.384Z,77.56
2019-04-01T03:55:21.360Z,77.95
2019-04-01T03:55:57.883Z,77.95
2019-04-01T03:56:38.723Z,78.14
2019-04-01T03:57:16.300Z,78.12
2019-04-01T03:57:52.401Z,78.29
2019-04-01T03:58:29.230Z,78.24
2019-04-01T03:59:10.270Z,78.68
2019-04-01T03:59:50.456Z,78.68
2019-04-01T04:00:26.964Z,78.23
2019-04-01T04:01:04.059Z,78.06
2019-04-01T04:01:40.343Z,77.78
2019-04-01T04:02:17.090Z,77.68
2019-04-01T04:02:55.094Z,77.55
2019-04-01T04:03:31.872Z,76.99
2019-04-01T04:04:07.867Z,76.99
2019-04-01T04:04:43.786Z,77.34
2019-04-01T04:05:20.500Z,77.34
2019-04-01T04:05:58.284Z,77.17
2019-04-01T04:06:37.418Z,77.17
2019-04-01T04:07:16.540Z,77.04
2019-04-01T04:07:58.071Z,76.93
2019-04-01T04:08:34.249Z,76.93
2019-04-01T04:09:10.297Z,76.58
2019-04-01T04:09:47.750Z,76.33
2019-04-01T04:10:24.631Z,75.98
2019-04-01T04:11:01.133Z,75.84
2019-04-01T04:11:50.749Z,75.67
2019-04-01T04:12:29.122Z,75.51
2019-04-01T04:13:05.286Z,75.34
2019-04-01T04:13:45.075Z,75.19
2019-04-01T04:14:22.773Z,75.22
2019-04-01T04:14:58.677Z,75.36
2019-04-01T04:15:34.719Z,75.36
2019-04-01T04:16:15.107Z,75.57
2019-04-01T04:16:51.855Z,75.73
2019-04-01T04:17:28.718Z,76.20
2019-04-01T04:18:05.293Z,76.15
2019-04-01T04:18:41.437Z,76.11
2019-04-01T04:19:19.505Z,76.22
2019-04-01T04:19:57.396Z,76.41
2019-04-01T04:20:33.716Z,76.62
2019-04-01T04:21:09.779Z,77.20
2019-04-01T04:21:48.655Z,77.32
2019-04-01T04:22:24.842Z,77.22
2019-04-01T04:23:00.954Z,77.26
2019-04-01T04:23:42.058Z,77.38
2019-04-01T04:24:29.672Z,77.43
2019-04-01T04:25:06.999Z,77.30
2019-04-01T04:25:45.143Z,77.17
2019-04-01T04:26:23.855Z,77.21
2019-04-01T04:27:01.481Z,77.03
2019-04-01T04:27:37.755Z,77.18
2019-04-01T04:28:15.891Z,77.25
2019-04-01T04:28:56.182Z,77.32
2019-04-01T04:29:38.999Z,77.54
2019-04-01T04:30:19.322Z,77.16
2019-04-01T04:31:02.773Z,77.20
2019-04-01T04:31:41.808Z,77.57
2019-04-01T04:32:19.027Z,78.15
2019-04-01T04:33:00.015Z,78.15
2019-04-01T04:33:36.069Z,77.79
2019-04-01T04:34:12.290Z,77.82
2019-04-01T04:34:48.319Z,77.61
2019-04-01T04:35:27.902Z,77.48
2019-04-01T04:36:03.956Z,77.37
2019-04-01T04:36:42.525Z,77.27
2019-04-01T04:37:20.707Z,77.17
2019-04-01T04:38:05.109Z,77.32
2019-04-01T04:38:42.287Z,77.49
2019-04-01T04:39:19.230Z,77.60
2019-04-01T04:39:55.899Z,77.48
2019-04-01T04:40:33.994Z,77.56
2019-04-01T04:41:11.447Z,77.33
2019-04-01T04:41:54.597Z,77.34
2019-04-01T04:42:31.528Z,76.64
2019-04-01T04:43:09.285Z,76.64
2019-04-01T04:43:47.985Z,76.46
2019-04-01T04:44:24.151Z,76.14
2019-04-01T04:45:00.437Z,76.12
2019-04-01T04:45:37.827Z,76.06
2019-04-01T04:46:13.898Z,75.95
2019-04-01T04:46:50.770Z,75.88
2019-04-01T04:47:29.425Z,76.04
2019-04-01T04:48:08.522Z,76.04
2019-04-01T04:48:44.543Z,76.06
2019-04-01T04:49:26.070Z,75.80
2019-04-01T04:50:04.570Z,75.51
2019-04-01T04:50:41.117Z,74.96
2019-04-01T04:51:20.172Z,75.03
2019-04-01T04:51:56.373Z,75.03
2019-04-01T04:52:32.463Z,74.99
2019-04-01T04:53:10.655Z,74.94
2019-04-01T04:53:47.656Z,75.10
2019-04-01T04:54:24.192Z,74.98
2019-04-01T04:55:02.632Z,74.74
2019-04-01T04:55:39.419Z,74.61
2019-04-01T04:56:18.074Z,74.52
2019-04-01T04:56:54.379Z,74.50
2019-04-01T04:57:31.208Z,74.26
2019-04-01T04:58:08.687Z,74.02
2019-04-01T04:58:46.493Z,73.84
2019-04-01T04:59:23.322Z,73.35
2019-04-01T05:00:00.826Z,73.41
2019-04-01T05:00:37.637Z,73.17
2019-04-01T05:01:16.652Z,73.07
2019-04-01T05:01:53.401Z,73.32
2019-04-01T05:02:30.483Z,73.44
2019-04-01T05:03:07.688Z,73.32
2019-04-01T05:03:46.774Z,73.29
2019-04-01T05:04:23.302Z,73.21
2019-04-01T05:05:01.497Z,73.25
2019-04-01T05:05:39.375Z,73.28
2019-04-01T05:06:18.291Z,73.17
2019-04-01T05:06:55.033Z,73.13
2019-04-01T05:07:32.027Z,72.69
2019-04-01T05:08:08.930Z,72.33
2019-04-01T05:08:45.013Z,72.18
2019-04-01T05:09:21.754Z,72.31
2019-04-01T05:09:58.602Z,72.03
2019-04-01T05:10:39.827Z,71.81
2019-04-01T05:11:15.847Z,71.95
2019-04-01T05:11:53.421Z,72.46
2019-04-01T05:12:31.746Z,72.61
2019-04-01T05:13:07.822Z,72.80
2019-04-01T05:13:45.676Z,72.95
2019-04-01T05:14:23.511Z,73.02
2019-04-01T05:15:04.057Z,73.26
2019-04-01T05:15:41.071Z,73.30
2019-04-01T05:16:17.970Z,73.03
2019-04-01T05:16:54.803Z,73.10
2019-04-01T05:17:38.134Z,73.30
2019-04-01T05:18:16.525Z,73.12
2019-04-01T05:18:54.142Z,73.10
2019-04-01T05:19:31.842Z,73.13
2019-04-01T05:20:10.395Z,72.92
2019-04-01T05:20:49.097Z,72.37
2019-04-01T05:21:28.372Z,71.97
2019-04-01T05:22:05.584Z,71.72
2019-04-01T05:22:42.556Z,71.65
2019-04-01T05:23:19.407Z,71.47
2019-04-01T05:24:00.161Z,70.97
2019-04-01T05:24:40.172Z,70.55
2019-04-01T05:25:25.238Z,70.20
2019-04-01T05:26:04.577Z,70.01
2019-04-01T05:26:44.289Z,69.84
2019-04-01T05:27:25.161Z,69.71
2019-04-01T05:28:05.985Z,69.74
2019-04-01T05:28:45.186Z,70.07
2019-04-01T05:29:22.873Z,70.22
2019-04-01T05:29:59.957Z,70.20
2019-04-01T05:30:37.943Z,70.24
2019-04-01T05:31:15.005Z,70.10
2019-04-01T05:31:52.570Z,69.59
2019-04-01T05:32:32.560Z,69.41
2019-04-01T05:33:11.915Z,69.33
2019-04-01T05:33:55.561Z,69.22
2019-04-01T05:34:36.638Z,68.88
2019-04-01T05:35:14.914Z,68.66
2019-04-01T05:35:51.560Z,68.72
2019-04-01T05:36:28.115Z,68.75
2019-04-01T05:37:08.640Z,69.12
2019-04-01T05:37:47.412Z,68.90
2019-04-01T05:38:24.259Z,68.55
2019-04-01T05:39:00.222Z,67.67
2019-04-01T05:39:37.660Z,66.51
2019-04-01T05:40:14.898Z,65.82
2019-04-01T05:40:52.171Z,65.88
2019-04-01T05:41:30.092Z,65.90
2019-04-01T05:42:06.861Z,65.31
2019-04-01T05:42:45.837Z,65.06
2019-04-01T05:43:24.140Z,64.78
2019-04-01T05:44:02.398Z,64.53
2019-04-01T05:44:38.849Z,64.72
2019-04-01T05:45:15.541Z,65.07
2019-04-01T05:46:00.479Z,65.36
2019-04-01T05:46:45.519Z,65.90
2019-04-01T05:47:25.322Z,66.36
2019-04-01T05:48:01.257Z,66.61
2019-04-01T05:48:37.480Z,66.99
2019-04-01T05:49:13.418Z,67.34
2019-04-01T05:49:50.912Z,67.29
2019-04-01T05:50:27.022Z,67.43
2019-04-01T05:51:04.600Z,67.66
2019-04-01T05:51:44.969Z,67.95
2019-04-01T05:52:21.233Z,68.30
2019-04-01T05:52:57.675Z,68.83
2019-04-01T05:53:33.767Z,68.97
2019-04-01T05:54:12.943Z,68.45
2019-04-01T05:54:49.002Z,68.31
2019-04-01T05:55:25.088Z,68.27
2019-04-01T05:56:01.146Z,68.24
2019-04-01T05:56:37.422Z,67.92
2019-04-01T05:57:15.965Z,68.18
2019-04-01T05:57:53.116Z,68.76
2019-04-01T05:58:30.166Z,68.88
2019-04-01T05:59:07.410Z,68.93
2019-04-01T05:59:43.863Z,69.15
2019-04-01T06:00:25.641Z,69.41
2019-04-01T06:01:08.868Z,70.02
2019-04-01T06:01:46.774Z,70.35
2019-04-01T06:02:25.909Z,70.42
2019-04-01T06:03:02.022Z,70.24
2019-04-01T06:03:38.707Z,70.49
2019-04-01T06:04:14.748Z,70.60
2019-04-01T06:04:50.668Z,70.66
2019-04-01T06:05:26.598Z,70.65
2019-04-01T06:06:02.838Z,71.08
2019-04-01T06:06:38.958Z,70.98
2019-04-01T06:07:23.270Z,70.98
2019-04-01T06:07:59.354Z,71.06
2019-04-01T06:08:38.517Z,71.23
2019-04-01T06:09:16.993Z,71.23
2019-04-01T06:09:53.013Z,70.81
2019-04-01T06:10:29.154Z,70.81
2019-04-01T06:11:05.383Z,72.20
2019-04-01T06:11:45.514Z,72.16
2019-04-01T06:12:25.835Z,71.91
2019-04-01T06:13:03.120Z,71.56
2019-04-01T06:13:44.510Z,71.63
2019-04-01T06:14:20.589Z,71.95
2019-04-01T06:14:57.584Z,71.95
2019-04-01T06:15:33.740Z,71.60
2019-04-01T06:16:09.799Z,71.36
2019-04-01T06:16:50.677Z,71.36
2019-04-01T06:17:26.882Z,71.61
2019-04-01T06:18:03.690Z,71.46
2019-04-01T06:18:40.907Z,71.67
2019-04-01T06:19:18.069Z,71.67
2019-04-01T06:19:56.401Z,72.44
2019-04-01T06:20:33.986Z,72.44
2019-04-01T06:21:10.101Z,71.96
2019-04-01T06:21:47.158Z,72.03
2019-04-01T06:22:25.941Z,72.08
2019-04-01T06:23:02.012Z,71.78
2019-04-01T06:23:38.139Z,71.78
2019-04-01T06:24:14.524Z,71.56
2019-04-01T06:24:50.519Z,71.35
2019-04-01T06:25:29.499Z,71.08
2019-04-01T06:26:08.268Z,70.93
2019-04-01T06:26:49.359Z,70.81
2019-04-01T06:27:32.052Z,70.81
2019-04-01T06:28:08.918Z,70.89
2019-04-01T06:28:47.841Z,70.89
2019-04-01T06:29:23.900Z,69.75
2019-04-01T06:30:10.378Z,69.59
2019-04-01T06:31:04.953Z,69.44
2019-04-01T06:31:42.301Z,69.30
2019-04-01T06:32:18.570Z,69.20
2019-04-01T06:32:54.606Z,69.17
2019-04-01T06:33:33.006Z,69.11
2019-04-01T06:34:12.272Z,69.00
2019-04-01T06:34:52.973Z,68.93
2019-04-01T06:35:47.965Z,68.86
2019-04-01T06:36:25.303Z,68.34
2019-04-01T06:37:03.499Z,67.49
2019-04-01T06:37:49.882Z,67.32
2019-04-01T06:38:39.948Z,67.09
2019-04-01T06:39:17.920Z,66.89
2019-04-01T06:39:55.342Z,66.52
2019-04-01T06:40:33.068Z,66.39
2019-04-01T06:41:15.480Z,66.27
2019-04-01T06:41:51.708Z,66.03
2019-04-01T06:42:33.166Z,66.12
2019-04-01T06:43:10.793Z,65.98
2019-04-01T06:43:59.056Z,66.31
2019-04-01T06:44:35.698Z,66.16
2019-04-01T06:45:11.789Z,66.03
2019-04-01T06:45:51.140Z,65.68
2019-04-01T06:46:34.317Z,65.31
2019-04-01T06:47:10.550Z,64.87
2019-04-01T06:47:46.642Z,64.83
2019-04-01T06:48:22.752Z,64.60
2019-04-01T06:49:02.203Z,64.82
2019-04-01T06:49:38.364Z,64.83
2019-04-01T06:50:15.736Z,64.95
2019-04-01T06:50:54.769Z,64.95
2019-04-01T06:51:30.889Z,64.99
2019-04-01T06:52:10.144Z,64.84
2019-04-01T06:52:47.688Z,64.75
2019-04-01T06:53:25.028Z,64.70
2019-04-01T06:54:02.717Z,64.66
2019-04-01T06:54:43.272Z,64.19
2019-04-01T06:55:26.141Z,64.01
2019-04-01T06:56:11.823Z,63.99
2019-04-01T06:56:57.434Z,63.90
2019-04-01T06:57:40.677Z,63.93
2019-04-01T06:58:22.922Z,63.99
2019-04-01T06:59:00.567Z,64.16
2019-04-01T06:59:38.874Z,64.38
2019-04-01T07:00:21.610Z,64.28
2019-04-01T07:01:04.236Z,63.50
2019-04-01T07:02:08.520Z,63.32
2019-04-01T07:02:48.352Z,63.19
2019-04-01T07:03:27.388Z,63.04
2019-04-01T07:04:08.220Z,63.03
2019-04-01T07:04:45.424Z,62.87
2019-04-01T07:05:22.916Z,63.03
2019-04-01T07:06:00.346Z,63.11
2019-04-01T07:06:44.693Z,62.75
2019-04-01T07:07:21.376Z,62.36
2019-04-01T07:08:00.779Z,62.20
2019-04-01T07:08:39.153Z,62.32
2019-04-01T07:09:22.650Z,62.00
2019-04-01T07:10:04.911Z,61.88
2019-04-01T07:10:44.365Z,61.82
2019-04-01T07:11:32.742Z,61.87
2019-04-01T07:12:13.533Z,61.94
2019-04-01T07:12:52.830Z,62.07
2019-04-01T07:13:34.300Z,62.05
2019-04-01T07:14:16.646Z,61.90
2019-04-01T07:14:54.347Z,62.05
2019-04-01T07:15:35.775Z,62.05
2019-04-01T07:16:23.424Z,62.01
2019-04-01T07:17:02.234Z,61.71
2019-04-01T07:17:39.152Z,61.55
2019-04-01T07:18:19.048Z,61.48
2019-04-01T07:19:00.663Z,61.49
2019-04-01T07:19:40.606Z,61.58
2019-04-01T07:20:22.493Z,61.73
2019-04-01T07:21:07.809Z,61.90
2019-04-01T07:21:49.566Z,62.05
2019-04-01T07:22:27.920Z,61.92
2019-04-01T07:23:11.872Z,61.92
2019-04-01T07:23:51.446Z,61.99
2019-04-01T07:24:28.889Z,61.99
2019-04-01T07:25:09.383Z,61.85
2019-04-01T07:25:45.431Z,61.73
2019-04-01T07:26:22.351Z,61.48
2019-04-01T07:26:59.507Z,61.23
2019-04-01T07:27:38.937Z,61.14
2019-04-01T07:28:15.150Z,61.02
2019-04-01T07:29:14.661Z,60.99
2019-04-01T07:29:50.604Z,60.87
2019-04-01T07:30:33.023Z,60.45
2019-04-01T07:31:14.045Z,60.20
2019-04-01T07:31:52.878Z,60.02
2019-04-01T07:32:31.284Z,59.17
2019-04-01T07:33:12.224Z,58.71
2019-04-01T07:33:49.853Z,58.31
2019-04-01T07:34:26.457Z,58.23
2019-04-01T07:35:06.249Z,58.03
2019-04-01T07:35:46.532Z,57.78
2019-04-01T07:36:21.575Z,57.69
2019-04-01T07:37:00.783Z,57.70
2019-04-01T07:37:45.396Z,57.90
2019-04-01T07:38:22.766Z,58.09
2019-04-01T07:39:01.249Z,58.08
2019-04-01T07:39:38.341Z,57.82
2019-04-01T07:40:14.552Z,57.64
2019-04-01T07:40:51.162Z,57.41
2019-04-01T07:41:28.937Z,57.25
2019-04-01T07:42:06.452Z,57.06
2019-04-01T07:43:09.046Z,57.08
2019-04-01T07:43:48.280Z,56.99
2019-04-01T07:44:27.973Z,56.97
2019-04-01T07:45:16.918Z,56.99
2019-04-01T07:45:53.139Z,56.96
2019-04-01T07:46:33.152Z,56.33
2019-04-01T07:47:13.707Z,55.90
2019-04-01T07:47:54.905Z,55.85
2019-04-01T07:48:53.731Z,55.88
2019-04-01T07:49:30.921Z,55.96
2019-04-01T07:50:12.047Z,56.17
2019-04-01T07:50:46.607Z,56.27
2019-04-01T07:51:24.297Z,56.29
2019-04-01T07:52:01.330Z,56.27
2019-04-01T07:52:41.835Z,56.30
2019-04-01T07:53:18.299Z,56.20
2019-04-01T07:53:54.325Z,56.18
2019-04-01T07:54:32.016Z,56.21
2019-04-01T07:55:08.266Z,56.13
2019-04-01T07:55:44.923Z,55.96
2019-04-01T07:56:20.853Z,55.76
2019-04-01T07:56:56.957Z,55.38
2019-04-01T07:59:50.255Z,54.78
2019-04-01T08:00:39.420Z,54.70
2019-04-01T08:01:52.986Z,54.71
2019-04-01T08:02:49.288Z,54.81
2019-04-01T08:03:34.483Z,54.49
2019-04-01T08:04:23.859Z,54.64
2019-04-01T08:05:14.190Z,54.77
2019-04-01T08:05:54.835Z,55.09
2019-04-01T08:06:58.497Z,55.32
2019-04-01T08:07:59.525Z,55.38
2019-04-01T08:09:44.740Z,55.73
2019-04-01T08:10:27.448Z,56.18
2019-04-01T08:13:04.176Z,57.07
2019-04-01T08:13:42.860Z,58.19
2019-04-01T08:14:20.786Z,58.65
2019-04-01T08:15:14.563Z,58.77
2019-04-01T08:16:06.558Z,58.96
2019-04-01T08:16:48.702Z,59.58
2019-04-01T08:17:31.390Z,59.99
2019-04-01T08:18:10.895Z,60.25
2019-04-01T08:18:48.748Z,60.44
2019-04-01T08:19:57.703Z,60.68
2019-04-01T08:21:17.384Z,60.83
2019-04-01T08:22:11.305Z,61.17
2019-04-01T08:23:15.070Z,61.77
2019-04-01T08:24:13.775Z,62.21
2019-04-01T08:25:32.582Z,62.45
2019-04-01T08:29:30.505Z,62.99
2019-04-01T08:31:52.818Z,63.28
2019-04-01T08:32:31.139Z,63.26
2019-04-01T08:33:40.563Z,63.29